createdAt,value
2019-04-10T00:00:56.526Z,11.40
2019-04-10T00:03:32.429Z,11.43
2019-04-10T00:05:52.150Z,11.37
2019-04-10T00:08:19.829Z,11.35
2019-04-10T00:10:47.857Z,11.31
2019-04-10T00:13:14.268Z,11.10
2019-04-10T00:15:42.352Z,11.11
2019-04-10T00:18:09.459Z,11.20
2019-04-10T00:20:36.653Z,11.23
2019-04-10T00:23:04.066Z,11.29
2019-04-10T00:25:31.473Z,11.18
2019-04-10T00:27:59.088Z,11.00
2019-04-10T00:30:27.086Z,10.99
2019-04-10T00:32:54.447Z,10.96
2019-04-10T00:35:21.447Z,10.93
2019-04-10T00:37:49.198Z,10.94
2019-04-10T00:40:15.970Z,11.01
2019-04-10T00:42:43.372Z,10.90
2019-04-10T00:45:11.267Z,11.01
2019-04-10T00:47:39.030Z,11.00
2019-04-10T00:50:06.438Z,11.02
2019-04-10T00:52:33.063Z,11.02
2019-04-10T00:55:01.461Z,11.04
2019-04-10T00:57:27.986Z,10.97
2019-04-10T01:00:01.378Z,10.97
2019-04-10T01:02:29.058Z,10.97
2019-04-10T01:04:56.175Z,10.89
2019-04-10T01:07:34.712Z,10.83
2019-04-10T01:09:50.992Z,10.72
2019-04-10T01:12:19.324Z,10.70
2019-04-10T01:14:45.824Z,10.79
2019-04-10T01:17:13.699Z,10.74
2019-04-10T01:19:41.802Z,10.73
2019-04-10T01:22:08.624Z,10.72
2019-04-10T01:24:35.555Z,10.68
2019-04-10T01:27:03.439Z,10.55
2019-04-10T01:29:30.399Z,10.48
2019-04-10T01:31:57.707Z,10.50
2019-04-10T01:34:25.424Z,10.58
2019-04-10T01:36:52.531Z,10.60
2019-04-10T01:39:22.288Z,10.58
2019-04-10T01:41:50.158Z,10.46
2019-04-10T01:44:17.079Z,10.45
2019-04-10T01:46:44.491Z,10.47
2019-04-10T01:49:11.889Z,10.43
2019-04-10T01:51:39.384Z,10.47
2019-04-10T01:54:06.913Z,10.50
2019-04-10T01:56:36.374Z,10.51
2019-04-10T01:59:01.986Z,10.55
2019-04-10T02:01:29.439Z,10.54
2019-04-10T02:03:56.823Z,10.50
2019-04-10T02:06:25.236Z,10.48
2019-04-10T02:08:51.732Z,10.49
2019-04-10T02:11:19.180Z,10.40
2019-04-10T02:13:47.603Z,10.29
2019-04-10T02:18:47.948Z,10.25
2019-04-10T02:21:15.741Z,10.24
2019-04-10T02:23:42.996Z,10.16
2019-04-10T02:26:11.491Z,10.14
2019-04-10T02:28:37.828Z,10.21
2019-04-10T02:31:06.814Z,10.27
2019-04-10T02:33:33.620Z,10.21
2019-04-10T02:36:01.363Z,10.11
2019-04-10T02:38:43.049Z,10.10
2019-04-10T02:40:55.480Z,10.07
2019-04-10T02:43:23.277Z,10.05
2019-04-10T02:45:51.059Z,10.02
2019-04-10T02:48:17.331Z,9.93
2019-04-10T02:50:45.047Z,9.91
2019-04-10T02:53:13.095Z,9.97
2019-04-10T02:55:40.855Z,9.87
2019-04-10T02:58:07.976Z,9.79
2019-04-10T03:00:35.886Z,9.75
2019-04-10T03:03:03.475Z,9.76
2019-04-10T03:05:30.299Z,9.67
2019-04-10T03:07:58.202Z,9.69
2019-04-10T03:10:33.674Z,9.69
2019-04-10T03:12:52.577Z,9.62
2019-04-10T03:15:20.042Z,9.61
2019-04-10T03:17:46.968Z,9.60
2019-04-10T03:20:14.362Z,9.66
2019-04-10T03:22:41.811Z,9.50
2019-04-10T03:25:09.213Z,9.43
2019-04-10T03:27:36.604Z,9.52
2019-04-10T03:30:05.231Z,9.57
2019-04-10T03:32:37.115Z,9.62
2019-04-10T03:37:54.392Z,10.01
2019-04-10T03:40:21.808Z,9.92
2019-04-10T03:42:49.604Z,9.86
2019-04-10T03:45:16.654Z,9.71
2019-04-10T03:47:44.091Z,9.62
2019-04-10T03:50:11.496Z,9.64
2019-04-10T03:52:38.912Z,9.67
2019-04-10T03:55:06.324Z,9.60
2019-04-10T03:57:34.382Z,9.56
2019-04-10T04:00:01.518Z,9.41
2019-04-10T04:02:29.484Z,9.37
2019-04-10T04:04:56.052Z,9.28
2019-04-10T04:07:26.022Z,9.37
2019-04-10T04:09:51.559Z,9.32
2019-04-10T04:12:18.272Z,9.27
2019-04-10T04:14:46.385Z,9.37
2019-04-10T04:17:13.641Z,9.35
2019-04-10T04:19:40.504Z,9.36
2019-04-10T04:22:08.280Z,9.33
2019-04-10T04:24:35.738Z,9.34
2019-04-10T04:27:02.857Z,9.19
2019-04-10T04:29:30.371Z,9.14
2019-04-10T04:31:57.614Z,9.10
2019-04-10T04:34:25.072Z,9.03
2019-04-10T04:36:53.512Z,8.99
2019-04-10T04:39:26.226Z,8.95
2019-04-10T04:41:47.886Z,8.97
2019-04-10T04:44:14.769Z,8.92
2019-04-10T04:46:42.944Z,8.96
2019-04-10T04:49:09.610Z,8.89
2019-04-10T04:51:37.068Z,8.86
2019-04-10T04:54:04.596Z,8.92
2019-04-10T04:56:32.101Z,9.04
2019-04-10T04:58:59.515Z,8.98
2019-04-10T05:01:27.544Z,9.01
2019-04-10T05:03:54.858Z,9.04
2019-04-10T05:06:22.253Z,9.05
2019-04-10T05:08:49.269Z,9.04
2019-04-10T05:11:16.688Z,9.14
2019-04-10T05:13:44.096Z,9.08
2019-04-10T05:16:11.484Z,9.09
2019-04-10T05:18:39.271Z,9.09
2019-04-10T05:21:06.333Z,9.14
2019-04-10T05:23:35.054Z,9.24
2019-04-10T05:26:02.380Z,9.26
2019-04-10T05:28:29.947Z,9.26
2019-04-10T05:30:56.871Z,9.29
2019-04-10T05:33:24.623Z,9.30
2019-04-10T05:35:51.117Z,9.36
2019-04-10T05:38:18.765Z,9.39
2019-04-10T05:40:45.935Z,9.34
2019-04-10T05:43:13.514Z,9.32
2019-04-10T05:45:40.910Z,9.35
2019-04-10T05:48:08.845Z,9.39
2019-04-10T05:50:35.771Z,9.39
2019-04-10T05:53:04.291Z,9.44
2019-04-10T05:55:30.964Z,9.56
2019-04-10T05:57:58.124Z,9.77
2019-04-10T06:00:25.402Z,9.89
2019-04-10T06:02:52.849Z,9.98
2019-04-10T06:05:20.358Z,10.11
2019-04-10T06:07:47.826Z,10.23
2019-04-10T06:10:15.509Z,10.36
2019-04-10T06:12:42.810Z,10.38
2019-04-10T06:15:10.686Z,10.41
2019-04-10T06:17:38.635Z,10.45
2019-04-10T06:20:05.196Z,10.51
2019-04-10T06:22:32.614Z,10.60
2019-04-10T06:25:00.760Z,10.69
2019-04-10T06:27:28.313Z,10.72
2019-04-10T06:29:55.317Z,10.81
2019-04-10T06:32:22.747Z,10.88
2019-04-10T06:34:50.245Z,10.91
2019-04-10T06:37:17.757Z,11.02
2019-04-10T06:39:46.010Z,11.08
2019-04-10T06:42:12.479Z,11.19
2019-04-10T06:44:39.880Z,11.39
2019-04-10T06:47:07.284Z,11.36
2019-04-10T06:49:34.692Z,11.44
2019-04-10T06:52:02.085Z,11.52
2019-04-10T06:54:29.500Z,11.53
2019-04-10T06:56:57.066Z,11.54
2019-04-10T06:59:24.590Z,11.71
2019-04-10T07:01:55.128Z,11.99
2019-04-10T07:04:24.210Z,12.04
2019-04-10T07:06:58.040Z,12.02
2019-04-10T07:09:15.722Z,12.13
2019-04-10T07:11:42.896Z,12.37
2019-04-10T07:14:12.600Z,12.64
2019-04-10T07:16:37.384Z,12.53
2019-04-10T07:19:08.555Z,12.44
2019-04-10T07:21:35.542Z,12.20
2019-04-10T07:24:04.994Z,12.28
2019-04-10T07:26:37.796Z,12.29
2019-04-10T07:28:58.666Z,12.35
2019-04-10T07:31:23.745Z,12.66
2019-04-10T07:33:52.236Z,12.97
2019-04-10T07:36:18.802Z,13.16
2019-04-10T07:38:46.854Z,13.22
2019-04-10T07:41:20.062Z,13.03
2019-04-10T07:43:42.607Z,13.12
2019-04-10T07:46:10.160Z,13.14
2019-04-10T07:48:37.924Z,13.31
2019-04-10T07:51:05.328Z,13.53
2019-04-10T07:53:33.198Z,13.53
2019-04-10T07:56:06.362Z,13.67
2019-04-10T07:58:29.214Z,13.80
2019-04-10T08:00:56.817Z,13.83
2019-04-10T08:03:25.162Z,13.83
2019-04-10T08:05:52.631Z,13.92
2019-04-10T08:08:19.461Z,13.88
2019-04-10T08:10:47.228Z,14.01
2019-04-10T08:13:14.233Z,14.34
2019-04-10T08:15:41.647Z,14.61
2019-04-10T08:18:10.050Z,14.64
2019-04-10T08:20:37.956Z,14.75
2019-04-10T08:23:04.446Z,14.80
2019-04-10T08:25:31.914Z,14.90
2019-04-10T08:28:00.575Z,15.11
2019-04-10T08:30:27.893Z,15.23
2019-04-10T08:33:00.718Z,15.24
2019-04-10T08:35:22.957Z,15.18
2019-04-10T08:37:49.327Z,15.19
2019-04-10T08:40:16.742Z,15.20
2019-04-10T08:42:46.039Z,15.26
2019-04-10T08:45:11.752Z,15.36
2019-04-10T08:47:39.684Z,15.42
2019-04-10T08:50:07.633Z,15.39
2019-04-10T08:52:34.767Z,15.47
2019-04-10T08:55:02.318Z,15.30
2019-04-10T08:57:29.806Z,15.40
2019-04-10T08:59:58.269Z,15.41
2019-04-10T09:02:24.730Z,15.52
2019-04-10T09:04:53.124Z,15.63
2019-04-10T09:07:19.987Z,15.87
2019-04-10T09:09:47.963Z,16.04
2019-04-10T09:12:15.696Z,16.22
2019-04-10T09:14:43.406Z,16.18
2019-04-10T09:17:11.106Z,16.21
2019-04-10T09:19:38.159Z,16.35
2019-04-10T09:22:05.971Z,16.45
2019-04-10T09:24:32.647Z,16.48
2019-04-10T09:27:00.551Z,16.39
2019-04-10T09:29:27.882Z,16.65
2019-04-10T09:31:55.751Z,16.71
2019-04-10T09:34:23.350Z,16.88
2019-04-10T09:36:49.916Z,16.97
2019-04-10T09:39:17.302Z,17.01
2019-04-10T09:41:45.980Z,17.08
2019-04-10T09:44:12.411Z,16.73
2019-04-10T09:46:40.817Z,16.82
2019-04-10T09:49:07.222Z,17.30
2019-04-10T09:51:34.646Z,17.87
2019-04-10T09:54:02.112Z,17.81
2019-04-10T09:56:29.846Z,17.87
2019-04-10T09:58:56.948Z,18.13
2019-04-10T10:01:24.364Z,18.39
2019-04-10T10:03:52.772Z,18.61
2019-04-10T10:06:27.372Z,18.58
2019-04-10T10:08:47.966Z,18.72
2019-04-10T10:11:14.730Z,18.89
2019-04-10T10:13:42.018Z,19.03
2019-04-10T10:16:10.581Z,19.05
2019-04-10T10:18:38.006Z,19.26
2019-04-10T10:21:05.419Z,19.55
2019-04-10T10:23:33.964Z,19.69
2019-04-10T10:26:01.724Z,19.70
2019-04-10T10:28:29.224Z,19.95
2019-04-10T10:30:56.235Z,20.03
2019-04-10T10:33:23.778Z,19.71
2019-04-10T10:35:51.559Z,19.68
2019-04-10T10:38:19.046Z,19.53
2019-04-10T10:40:46.076Z,19.24
2019-04-10T10:43:13.505Z,19.21
2019-04-10T10:45:40.915Z,19.51
2019-04-10T10:48:09.068Z,19.66
2019-04-10T10:50:35.767Z,19.51
2019-04-10T10:53:04.029Z,19.09
2019-04-10T10:55:31.759Z,18.44
2019-04-10T10:57:58.151Z,18.14
2019-04-10T11:00:25.612Z,18.62
2019-04-10T11:02:53.930Z,18.61
2019-04-10T11:05:21.133Z,19.00
2019-04-10T11:07:48.912Z,19.63
2019-04-10T11:10:19.652Z,20.13
2019-04-10T11:12:42.858Z,20.04
2019-04-10T11:15:10.405Z,19.96
2019-04-10T11:17:38.449Z,19.98
2019-04-10T11:20:08.025Z,20.39
2019-04-10T11:22:33.962Z,20.64
2019-04-10T11:25:01.552Z,20.16
2019-04-10T11:27:28.114Z,20.16
2019-04-10T11:29:55.075Z,20.13
2019-04-10T11:32:22.172Z,20.32
2019-04-10T11:34:49.364Z,20.98
2019-04-10T11:37:24.221Z,21.26
2019-04-10T11:39:45.427Z,21.76
2019-04-10T11:42:12.149Z,22.08
2019-04-10T11:44:39.606Z,21.71
2019-04-10T11:47:09.534Z,21.42
2019-04-10T11:49:36.150Z,21.06
2019-04-10T11:52:03.375Z,21.48
2019-04-10T11:54:31.953Z,22.32
2019-04-10T11:56:58.709Z,23.07
2019-04-10T11:59:24.339Z,23.24
2019-04-10T12:01:56.956Z,22.68
2019-04-10T12:04:20.159Z,22.11
2019-04-10T12:06:50.262Z,21.30
2019-04-10T12:10:00.118Z,21.31
2019-04-10T12:11:44.717Z,21.70
2019-04-10T12:14:11.549Z,21.93
2019-04-10T12:16:39.039Z,21.95
2019-04-10T12:19:06.891Z,21.74
2019-04-10T12:21:33.795Z,21.75
2019-04-10T12:24:01.227Z,21.91
2019-04-10T12:26:28.687Z,21.74
2019-04-10T12:28:56.185Z,21.75
2019-04-10T12:31:23.873Z,21.98
2019-04-10T12:33:51.007Z,22.19
2019-04-10T12:36:18.410Z,22.47
2019-04-10T12:38:45.848Z,22.39
2019-04-10T12:41:13.275Z,22.54
2019-04-10T12:43:41.115Z,22.79
2019-04-10T12:46:08.651Z,23.60
2019-04-10T12:48:36.804Z,23.61
2019-04-10T12:51:03.483Z,22.96
2019-04-10T12:53:31.657Z,22.45
2019-04-10T12:55:58.020Z,22.44
2019-04-10T12:58:25.435Z,23.03
2019-04-10T13:00:52.946Z,23.67
2019-04-10T13:03:20.255Z,24.20
2019-04-10T13:05:47.658Z,24.14
2019-04-10T13:08:21.804Z,24.28
2019-04-10T13:10:43.475Z,24.42
2019-04-10T13:13:11.483Z,24.64
2019-04-10T13:15:37.845Z,24.52
2019-04-10T13:18:05.913Z,25.00
2019-04-10T13:20:33.660Z,25.69
2019-04-10T13:23:00.330Z,26.03
2019-04-10T13:25:27.343Z,26.26
2019-04-10T13:27:54.878Z,26.26
2019-04-10T13:30:21.291Z,26.23
2019-04-10T13:32:48.218Z,25.43
2019-04-10T13:35:15.797Z,24.52
2019-04-10T13:37:42.137Z,23.82
2019-04-10T13:40:09.542Z,23.47
2019-04-10T13:42:37.281Z,23.40
2019-04-10T13:45:06.892Z,23.09
2019-04-10T13:47:34.391Z,23.54
2019-04-10T13:50:00.880Z,24.51
2019-04-10T13:52:28.278Z,25.32
2019-04-10T13:54:55.799Z,25.28
2019-04-10T13:57:23.101Z,24.54
2019-04-10T13:59:50.100Z,22.95
2019-04-10T14:02:17.979Z,22.12
2019-04-10T14:04:45.378Z,22.20
2019-04-10T14:07:12.807Z,22.50
2019-04-10T14:09:46.120Z,23.53
2019-04-10T14:12:08.345Z,23.28
2019-04-10T14:14:36.969Z,22.90
2019-04-10T14:17:05.526Z,22.47
2019-04-10T14:19:31.796Z,21.85
2019-04-10T14:21:58.172Z,21.65
2019-04-10T14:24:26.317Z,20.92
2019-04-10T14:29:46.932Z,19.61
2019-04-10T14:32:13.495Z,19.13
2019-04-10T14:34:40.919Z,18.95
2019-04-10T14:37:09.273Z,18.76
2019-04-10T14:39:35.977Z,18.75
2019-04-10T14:42:04.335Z,18.78
2019-04-10T14:44:30.889Z,18.76
2019-04-10T14:46:58.346Z,18.73
2019-04-10T14:49:29.668Z,18.70
2019-04-10T14:51:57.142Z,18.66
2019-04-10T14:54:24.558Z,18.53
2019-04-10T14:56:52.589Z,18.62
2019-04-10T14:59:19.834Z,18.61
2019-04-10T15:01:53.186Z,18.74
2019-04-10T15:04:22.386Z,19.04
2019-04-10T15:06:50.053Z,19.29
2019-04-10T15:09:23.230Z,19.31
2019-04-10T15:11:45.029Z,19.09
2019-04-10T15:14:13.152Z,18.89
2019-04-10T15:16:40.931Z,18.96
2019-04-10T15:19:07.992Z,19.01
2019-04-10T15:21:35.290Z,19.22
2019-04-10T15:24:03.545Z,19.31
2019-04-10T15:26:30.207Z,19.41
2019-04-10T15:28:58.272Z,19.16
2019-04-10T15:31:27.460Z,18.79
2019-04-10T15:33:52.468Z,18.25
2019-04-10T15:36:20.033Z,17.76
2019-04-10T15:38:48.348Z,17.54
2019-04-10T15:41:14.752Z,17.35
2019-04-10T15:43:43.434Z,17.18
2019-04-10T15:46:10.763Z,17.22
2019-04-10T15:48:37.694Z,17.28
2019-04-10T15:51:05.604Z,17.35
2019-04-10T15:53:32.250Z,17.25
2019-04-10T15:55:59.606Z,17.21
2019-04-10T15:58:27.779Z,17.22
2019-04-10T16:00:54.455Z,17.16
2019-04-10T16:03:21.886Z,17.18
2019-04-10T16:05:50.175Z,17.31
2019-04-10T16:08:16.770Z,17.46
2019-04-10T16:10:46.352Z,17.35
2019-04-10T16:13:14.545Z,17.29
2019-04-10T16:15:42.834Z,17.31
2019-04-10T16:18:11.860Z,17.24
2019-04-10T16:20:39.306Z,17.04
2019-04-10T16:23:07.966Z,16.86
2019-04-10T16:25:34.329Z,16.92
2019-04-10T16:28:02.092Z,16.96
2019-04-10T16:30:29.146Z,17.01
2019-04-10T16:32:56.575Z,16.96
2019-04-10T16:35:23.972Z,16.79
2019-04-10T16:37:51.598Z,16.76
2019-04-10T16:40:18.807Z,16.76
2019-04-10T16:42:46.764Z,16.75
2019-04-10T16:45:13.711Z,16.79
2019-04-10T16:47:41.994Z,16.81
2019-04-10T16:50:09.171Z,16.76
2019-04-10T16:52:36.846Z,16.78
2019-04-10T16:55:03.617Z,16.82
2019-04-10T16:57:31.044Z,16.85
2019-04-10T16:59:59.213Z,16.81
2019-04-10T17:02:26.355Z,16.82
2019-04-10T17:04:54.189Z,16.83
2019-04-10T17:07:21.104Z,16.83
2019-04-10T17:09:49.920Z,16.88
2019-04-10T17:12:15.848Z,16.88
2019-04-10T17:14:43.922Z,16.87
2019-04-10T17:17:10.728Z,16.84
2019-04-10T17:19:48.049Z,16.86
2019-04-10T17:22:06.765Z,16.80
2019-04-10T17:24:33.492Z,16.82
2019-04-10T17:27:01.511Z,16.82
2019-04-10T17:29:29.206Z,16.89
2019-04-10T17:31:57.100Z,16.95
2019-04-10T17:34:24.865Z,16.97
2019-04-10T17:36:51.500Z,16.95
2019-04-10T17:39:19.612Z,16.91
2019-04-10T17:41:45.981Z,16.68
2019-04-10T17:44:13.767Z,16.58
2019-04-10T17:46:41.628Z,16.59
2019-04-10T17:49:09.135Z,16.51
2019-04-10T17:51:36.349Z,16.39
2019-04-10T17:54:04.185Z,16.26
2019-04-10T17:56:30.904Z,16.20
2019-04-10T17:58:58.334Z,16.16
2019-04-10T18:01:27.047Z,16.13
2019-04-10T18:03:57.214Z,16.10
2019-04-10T18:06:21.423Z,16.05
2019-04-10T18:08:49.280Z,16.00
2019-04-10T18:11:16.222Z,15.95
2019-04-10T18:13:43.054Z,15.94
2019-04-10T18:16:10.682Z,15.95
2019-04-10T18:18:38.046Z,15.91
2019-04-10T18:21:06.583Z,15.86
2019-04-10T18:23:33.603Z,15.74
2019-04-10T18:26:00.507Z,15.42
2019-04-10T18:28:30.958Z,15.15
2019-04-10T18:30:56.488Z,15.10
2019-04-10T18:33:23.043Z,15.10
2019-04-10T18:35:51.171Z,15.15
2019-04-10T18:38:17.942Z,15.16
2019-04-10T18:40:53.126Z,15.14
2019-04-10T18:43:12.968Z,15.21
2019-04-10T18:45:42.120Z,15.30
2019-04-10T18:48:08.312Z,15.35
2019-04-10T18:50:36.177Z,15.20
2019-04-10T18:53:03.614Z,15.06
2019-04-10T18:55:30.160Z,14.98
2019-04-10T18:57:57.459Z,14.93
2019-04-10T19:00:30.481Z,14.74
2019-04-10T19:03:01.449Z,14.75
2019-04-10T19:05:29.944Z,14.79
2019-04-10T19:07:56.701Z,14.77
2019-04-10T19:10:23.798Z,14.69
2019-04-10T19:12:51.200Z,14.51
2019-04-10T19:15:18.651Z,14.45
2019-04-10T19:17:46.846Z,14.34
2019-04-10T19:20:13.616Z,14.34
2019-04-10T19:22:42.326Z,14.40
2019-04-10T19:25:08.484Z,14.28
2019-04-10T19:27:36.098Z,14.18
2019-04-10T19:30:04.712Z,14.21
2019-04-10T19:32:33.278Z,14.37
2019-04-10T19:34:59.825Z,14.48
2019-04-10T19:37:28.200Z,14.55
2019-04-10T19:39:54.652Z,14.64
2019-04-10T19:42:22.117Z,14.64
2019-04-10T19:44:49.540Z,14.60
2019-04-10T19:47:17.943Z,14.51
2019-04-10T19:49:44.600Z,14.46
2019-04-10T19:52:12.009Z,14.38
2019-04-10T19:54:39.363Z,14.34
2019-04-10T19:57:06.959Z,14.32
2019-04-10T19:59:35.621Z,14.30
2019-04-10T20:02:02.431Z,14.30
2019-04-10T20:04:29.394Z,14.27
2019-04-10T20:06:56.675Z,14.18
2019-04-10T20:09:24.311Z,14.10
2019-04-10T20:11:54.463Z,14.07
2019-04-10T20:14:19.966Z,13.96
2019-04-10T20:16:47.144Z,13.84
2019-04-10T20:19:15.156Z,13.81
2019-04-10T20:21:41.881Z,13.77
2019-04-10T20:24:10.420Z,13.78
2019-04-10T20:26:37.559Z,13.78
2019-04-10T20:29:04.976Z,13.79
2019-04-10T20:31:33.154Z,13.79
2019-04-10T20:33:59.958Z,13.77
2019-04-10T20:36:27.397Z,13.74
2019-04-10T20:38:54.785Z,13.71
2019-04-10T20:41:22.466Z,13.73
2019-04-10T20:43:49.637Z,13.80
2019-04-10T20:46:18.042Z,13.73
2019-04-10T20:48:44.652Z,13.68
2019-04-10T20:51:12.372Z,13.55
2019-04-10T20:53:40.235Z,13.49
2019-04-10T20:56:06.886Z,13.51
2019-04-10T20:58:34.339Z,13.58
2019-04-10T21:01:01.902Z,13.61
2019-04-10T21:03:29.383Z,13.63
2019-04-10T21:05:56.841Z,13.69
2019-04-10T21:08:24.239Z,13.71
2019-04-10T21:10:51.645Z,13.72
2019-04-10T21:13:19.132Z,13.62
2019-04-10T21:15:46.534Z,13.61
2019-04-10T21:18:15.349Z,13.52
2019-04-10T21:20:43.211Z,13.46
2019-04-10T21:23:09.604Z,13.36
2019-04-10T21:25:37.284Z,13.27
2019-04-10T21:28:04.793Z,13.25
2019-04-10T21:30:37.089Z,13.30
2019-04-10T21:33:04.338Z,13.27
2019-04-10T21:35:32.740Z,13.20
2019-04-10T21:37:59.636Z,13.12
2019-04-10T21:40:27.206Z,13.04
2019-04-10T21:42:56.098Z,12.98
2019-04-10T21:45:22.967Z,12.88
2019-04-10T21:47:50.408Z,12.74
2019-04-10T21:50:18.568Z,12.73
2019-04-10T21:52:47.509Z,12.63
2019-04-10T21:55:14.943Z,12.59
2019-04-10T21:57:42.460Z,12.58
2019-04-10T22:00:08.695Z,12.57
2019-04-10T22:02:36.140Z,12.55
2019-04-10T22:05:03.803Z,12.54
2019-04-10T22:07:32.280Z,12.51
2019-04-10T22:12:52.708Z,12.73
2019-04-10T22:15:20.391Z,12.67
2019-04-10T22:17:48.044Z,12.60
2019-04-10T22:20:15.205Z,12.57
2019-04-10T22:22:42.938Z,12.55
2019-04-10T22:25:11.037Z,12.54
2019-04-10T22:27:37.386Z,12.58
2019-04-10T22:30:05.523Z,12.50
2019-04-10T22:32:33.134Z,12.39
2019-04-10T22:35:01.085Z,12.38
2019-04-10T22:37:27.962Z,12.37
2019-04-10T22:39:56.572Z,12.35
2019-04-10T22:42:35.828Z,12.26
2019-04-10T22:44:50.193Z,12.26
2019-04-10T22:47:17.605Z,12.25
2019-04-10T22:49:45.145Z,12.24
2019-04-10T22:52:12.463Z,12.18
2019-04-10T22:54:39.905Z,12.19
2019-04-10T22:57:07.464Z,12.18
2019-04-10T22:59:35.011Z,12.13
2019-04-10T23:02:11.039Z,12.13
2019-04-10T23:04:30.614Z,12.13
2019-04-10T23:06:57.682Z,12.14
2019-04-10T23:09:24.863Z,12.15
2019-04-10T23:11:52.244Z,12.21
2019-04-10T23:14:20.684Z,12.21
2019-04-10T23:16:47.101Z,12.22
2019-04-10T23:19:14.505Z,12.20
2019-04-10T23:21:42.906Z,12.14
2019-04-10T23:24:09.555Z,12.09
2019-04-10T23:26:37.513Z,12.09
2019-04-10T23:29:04.263Z,12.10
2019-04-10T23:31:31.899Z,12.22
2019-04-10T23:33:59.035Z,12.36
2019-04-10T23:36:26.535Z,12.47
2019-04-10T23:38:53.903Z,12.53
2019-04-10T23:41:21.335Z,12.59
2019-04-10T23:43:48.748Z,12.58
2019-04-10T23:46:17.976Z,12.55
2019-04-10T23:48:44.704Z,12.51
2019-04-10T23:51:12.662Z,12.47
2019-04-10T23:53:39.147Z,12.43
2019-04-10T23:56:06.562Z,12.34
2019-04-10T23:58:34.042Z,12.34
